Terminal Aerodrome Forecast
Issued by NWS Newport/Morehead City, NC

Home | Current Version | Previous Version | Text Only | Print | Product List | Glossary Off
Versions: 1 2 3 4 5 6 7 8 9 10 11 12 13 14 15 16 17

000
FTUS42 KMHX 272300
TAFEWN
TAF
KEWN 272324Z 2800/2824 03005KT P6SM BKN035
     FM280800 00000KT 3/4SM BR OVC003
     FM281300 05008KT P6SM SCT030=

USA.gov is the U.S. government's official web portal to all federal, state and local government web resources and services.